createdAt,value
2023-04-09T00:00:55.665Z,100991.88
2023-04-09T00:03:01.988Z,100990.43
2023-04-09T00:05:08.546Z,100993.6
2023-04-09T00:07:14.712Z,100989.53
2023-04-09T00:09:21.818Z,100987.64
2023-04-09T00:11:28.675Z,100984.22
2023-04-09T00:13:41.349Z,100987.14
2023-04-09T00:15:48.045Z,100982.66
2023-04-09T00:17:54.575Z,100977.06
2023-04-09T00:20:01.854Z,100974.88
2023-04-09T00:22:08.658Z,100974.17
2023-04-09T00:24:14.935Z,100973.59
2023-04-09T00:26:21.200Z,100976.84
2023-04-09T00:28:27.730Z,100980.88
2023-04-09T00:30:34.361Z,100985.13
2023-04-09T00:32:41.338Z,100982.98
2023-04-09T00:34:47.733Z,100979.16
2023-04-09T00:36:55.309Z,100972.53
2023-04-09T00:39:01.947Z,100972.03
2023-04-09T00:41:08.055Z,100975.98
2023-04-09T00:43:14.385Z,100976.4
2023-04-09T00:45:20.554Z,100970.59
2023-04-09T00:47:26.572Z,100965.89
2023-04-09T00:49:33.394Z,100968.16
2023-04-09T00:51:39.668Z,100962.77
2023-04-09T00:53:45.794Z,100959.27
2023-04-09T00:55:52.853Z,100963.14
2023-04-09T00:57:59.232Z,100960.54
2023-04-09T01:00:06.054Z,100963.84
2023-04-09T01:02:12.416Z,100964.33
2023-04-09T01:04:19.269Z,100965.98
2023-04-09T01:06:25.942Z,100963.34
2023-04-09T01:08:32.739Z,100959.47
2023-04-09T01:10:39.148Z,100954.82
2023-04-09T01:12:45.596Z,100962.06
2023-04-09T01:14:52.849Z,100962.23
2023-04-09T01:16:59.374Z,100965.85
2023-04-09T01:19:06.126Z,100965.94
2023-04-09T01:21:12.514Z,100967.09
2023-04-09T01:23:19.169Z,100966.23
2023-04-09T01:25:27.433Z,100967.3
2023-04-09T01:27:34.166Z,100964.34
2023-04-09T01:29:40.432Z,100970.88
2023-04-09T01:31:46.922Z,100971.25
2023-04-09T01:33:55.812Z,100975.03
2023-04-09T01:36:03.171Z,100973.39
2023-04-09T01:38:13.861Z,100974.95
2023-04-09T01:40:20.675Z,100977.63
2023-04-09T01:42:27.241Z,100977.58
2023-04-09T01:44:33.805Z,100974.98
2023-04-09T01:46:40.175Z,100978.3
2023-04-09T01:48:49.813Z,100976.56
2023-04-09T01:50:57.703Z,100979.97
2023-04-09T01:53:04.267Z,100975.82
2023-04-09T01:55:10.791Z,100981.99
2023-04-09T01:57:17.626Z,100978.83
2023-04-09T01:59:24.010Z,100981.45
2023-04-09T02:01:30.312Z,100981.91
2023-04-09T02:03:37.994Z,100984.63
2023-04-09T02:05:44.885Z,100979.77
2023-04-09T02:07:53.025Z,100978.37
2023-04-09T02:09:59.583Z,100980.72
2023-04-09T02:12:06.198Z,100985.08
2023-04-09T02:14:12.942Z,100982.98
2023-04-09T02:16:23.155Z,100983.06
2023-04-09T02:18:29.599Z,100984.3
2023-04-09T02:20:36.446Z,100984.17
2023-04-09T02:22:42.965Z,100985.08
2023-04-09T02:24:50.034Z,100982.03
2023-04-09T02:26:57.215Z,100978.17
2023-04-09T02:29:03.609Z,100978.25
2023-04-09T02:31:10.581Z,100975.28
2023-04-09T02:33:16.977Z,100975.98
2023-04-09T02:35:23.676Z,100974.78
2023-04-09T02:37:30.503Z,100973.55
2023-04-09T02:39:36.800Z,100971.78
2023-04-09T02:41:43.158Z,100970.75
2023-04-09T02:43:50.068Z,100975.58
2023-04-09T02:45:56.983Z,100979.08
2023-04-09T02:48:03.447Z,100976.59
2023-04-09T02:50:09.719Z,100976.34
2023-04-09T02:52:19.066Z,100972.61
2023-04-09T02:54:25.914Z,100972.2
2023-04-09T02:56:32.842Z,100972.6
2023-04-09T02:58:39.946Z,100969.77
2023-04-09T03:00:46.966Z,100967.75
2023-04-09T03:02:53.793Z,100971.82
2023-04-09T03:05:00.522Z,100971.78
2023-04-09T03:07:07.131Z,100970.02
2023-04-09T03:09:13.677Z,100969.48
2023-04-09T03:11:19.950Z,100970.09
2023-04-09T03:13:26.417Z,100969.85
2023-04-09T03:15:33.412Z,100970.63
2023-04-09T03:17:39.820Z,100967.38
2023-04-09T03:19:46.177Z,100969.35
2023-04-09T03:21:52.711Z,100967.25
2023-04-09T03:23:58.963Z,100971.58
2023-04-09T03:26:06.005Z,100968.73
2023-04-09T03:28:12.918Z,100968.91
2023-04-09T03:30:20.020Z,100967.84
2023-04-09T03:32:27.500Z,100966.22
2023-04-09T03:34:33.908Z,100962.44
2023-04-09T03:36:40.928Z,100961.33
2023-04-09T03:38:47.589Z,100961.73
2023-04-09T03:40:54.548Z,100963.92
2023-04-09T03:43:01.022Z,100967.05
2023-04-09T03:45:07.213Z,100971.7
2023-04-09T03:47:13.647Z,100972.72
2023-04-09T03:49:20.406Z,100976.34
2023-04-09T03:51:27.257Z,100973.8
2023-04-09T03:53:33.499Z,100975.16
2023-04-09T03:55:40.664Z,100977.05
2023-04-09T03:57:49.345Z,100976.39
2023-04-09T03:59:56.766Z,100978.86
2023-04-09T04:02:03.884Z,100983.19
2023-04-09T04:04:11.109Z,100983.48
2023-04-09T04:06:17.848Z,100982.86
2023-04-09T04:08:24.500Z,100978.86
2023-04-09T04:10:30.841Z,100972.6
2023-04-09T04:12:37.282Z,100973.92
2023-04-09T04:14:43.655Z,100976.73
2023-04-09T04:16:50.122Z,100976.8
2023-04-09T04:18:56.681Z,100979.81
2023-04-09T04:21:02.886Z,100978.09
2023-04-09T04:23:10.670Z,100983.07
2023-04-09T04:25:17.654Z,100982.45
2023-04-09T04:27:23.768Z,100982.83
2023-04-09T04:29:30.359Z,100986.45
2023-04-09T04:31:36.482Z,100989.57
2023-04-09T04:33:43.320Z,100992.45
2023-04-09T04:35:50.887Z,100992.63
2023-04-09T04:37:57.274Z,100992.45
2023-04-09T04:40:03.823Z,100996.41
2023-04-09T04:42:10.020Z,100994.39
2023-04-09T04:44:16.754Z,100996.25
2023-04-09T04:46:23.134Z,100996.58
2023-04-09T04:48:29.458Z,101001.72
2023-04-09T04:50:36.190Z,101000.37
2023-04-09T04:52:42.936Z,101002.05
2023-04-09T04:54:49.422Z,100996.78
2023-04-09T04:56:55.723Z,100996.28
2023-04-09T04:59:02.633Z,100996.78
2023-04-09T05:01:10.930Z,100995.41
2023-04-09T05:03:18.453Z,100997.42
2023-04-09T05:05:24.947Z,100996.43
2023-04-09T05:07:31.493Z,100999.15
2023-04-09T05:09:37.563Z,100995.14
2023-04-09T05:11:44.471Z,100994.8
2023-04-09T05:13:50.947Z,100992.52
2023-04-09T05:15:57.239Z,100996.58
2023-04-09T05:18:03.630Z,100998.13
2023-04-09T05:20:10.232Z,100998.02
2023-04-09T05:22:16.762Z,100993.73
2023-04-09T05:24:22.902Z,101000.34
2023-04-09T05:26:29.860Z,100993.45
2023-04-09T05:28:36.077Z,100991.08
2023-04-09T05:30:42.977Z,100991.81
2023-04-09T05:32:49.133Z,100995.6
2023-04-09T05:34:55.653Z,100989.95
2023-04-09T05:37:01.928Z,100992.45
2023-04-09T05:39:08.510Z,100994.45
2023-04-09T05:41:15.402Z,100988.09
2023-04-09T05:43:21.799Z,100988.45
2023-04-09T05:45:28.544Z,100989.92
2023-04-09T05:47:34.848Z,100992.17
2023-04-09T05:49:41.697Z,100988.52
2023-04-09T05:51:48.735Z,100992.71
2023-04-09T05:53:55.314Z,100988.9
2023-04-09T05:56:01.675Z,100989.12
2023-04-09T05:58:08.038Z,100987.68
2023-04-09T06:00:16.272Z,100987.94
2023-04-09T06:02:23.322Z,100985.63
2023-04-09T06:04:32.022Z,100985.65
2023-04-09T06:06:39.080Z,100985.06
2023-04-09T06:08:46.881Z,100981.21
2023-04-09T06:10:54.223Z,100983.94
2023-04-09T06:13:03.167Z,100984.63
2023-04-09T06:15:11.361Z,100982.34
2023-04-09T06:17:18.391Z,100982.48
2023-04-09T06:19:25.140Z,100982.94
2023-04-09T06:21:31.930Z,100986.47
2023-04-09T06:23:39.000Z,100986.88
2023-04-09T06:25:45.851Z,100992
2023-04-09T06:27:52.786Z,100992.27
2023-04-09T06:29:59.455Z,100991.7
2023-04-09T06:32:08.252Z,100987.31
2023-04-09T06:34:15.680Z,100990.56
2023-04-09T06:36:22.393Z,100990.75
2023-04-09T06:38:31.426Z,100988.25
2023-04-09T06:40:39.015Z,100992.68
2023-04-09T06:42:45.452Z,100992.95
2023-04-09T06:44:52.650Z,100997.89
2023-04-09T06:46:59.181Z,100990.27
2023-04-09T06:49:05.738Z,100987.89
2023-04-09T06:51:13.972Z,100987.06
2023-04-09T06:53:20.810Z,100990.32
2023-04-09T06:55:27.835Z,100990.13
2023-04-09T06:57:34.624Z,100995.13
2023-04-09T06:59:43.465Z,100997.11
2023-04-09T07:01:52.615Z,100997.97
2023-04-09T07:04:00.812Z,101001.94
2023-04-09T07:06:11.382Z,100997.95
2023-04-09T07:08:17.592Z,100998.56
2023-04-09T07:10:24.072Z,101001.57
2023-04-09T07:12:30.890Z,100999.57
2023-04-09T07:14:37.208Z,101000.04
2023-04-09T07:16:43.980Z,100997.14
2023-04-09T07:18:50.368Z,101004.64
2023-04-09T07:20:56.776Z,101002.22
2023-04-09T07:23:04.679Z,101005.58
2023-04-09T07:25:11.124Z,101005.11
2023-04-09T07:27:18.252Z,101004.68
2023-04-09T07:29:25.849Z,101002.03
2023-04-09T07:31:34.618Z,101008.23
2023-04-09T07:33:42.898Z,101008.58
2023-04-09T07:35:49.633Z,101009.03
2023-04-09T07:37:59.755Z,101006.61
2023-04-09T07:40:06.752Z,101002.61
2023-04-09T07:42:13.461Z,101000.69
2023-04-09T07:44:20.255Z,101001.55
2023-04-09T07:46:27.879Z,101009.15
2023-04-09T07:48:37.269Z,101011.63
2023-04-09T07:50:45.102Z,101009.84
2023-04-09T07:52:51.614Z,101009.69
2023-04-09T07:54:59.251Z,101007.98
2023-04-09T07:57:05.681Z,100998.7
2023-04-09T07:59:12.601Z,100997.1
2023-04-09T08:01:19.499Z,100998.63
2023-04-09T08:03:26.113Z,100999.55
2023-04-09T08:05:33.501Z,100998.06
2023-04-09T08:07:40.717Z,100999.88
2023-04-09T08:09:46.995Z,100996.31
2023-04-09T08:11:53.427Z,100991.92
2023-04-09T08:14:02.749Z,100994.24
2023-04-09T08:16:09.831Z,100991.58
2023-04-09T08:18:16.768Z,100996.14
2023-04-09T08:20:23.775Z,100997.84
2023-04-09T08:22:30.340Z,100993.32
2023-04-09T08:24:39.973Z,100995.05
2023-04-09T08:26:46.644Z,100990.88
2023-04-09T08:28:55.125Z,100992.73
2023-04-09T08:31:02.229Z,100992.63
2023-04-09T08:33:08.751Z,100986.75
2023-04-09T08:35:15.478Z,100994.61
2023-04-09T08:37:22.295Z,100986.63
2023-04-09T08:39:29.468Z,100993.59
2023-04-09T08:41:35.971Z,100991.58
2023-04-09T08:43:59.686Z,100992.08
2023-04-09T08:46:06.563Z,100994.8
2023-04-09T08:48:13.650Z,100992.56
2023-04-09T08:50:21.237Z,100998.27
2023-04-09T08:52:27.852Z,100995.22
2023-04-09T08:54:34.349Z,100997.2
2023-04-09T08:56:40.891Z,100995.97
2023-04-09T08:58:48.620Z,100995.91
2023-04-09T09:00:56.053Z,100992.67
2023-04-09T09:03:04.133Z,100999.38
2023-04-09T09:05:11.244Z,100997.97
2023-04-09T09:07:18.274Z,100999.75
2023-04-09T09:09:25.154Z,100998.41
2023-04-09T09:11:31.447Z,101003.28
2023-04-09T09:13:37.954Z,101003.7
2023-04-09T09:15:45.211Z,101006.8
2023-04-09T09:17:52.059Z,101006.64
2023-04-09T09:19:59.055Z,101006.42
2023-04-09T09:22:05.864Z,101005.68
2023-04-09T09:24:12.687Z,101009.44
2023-04-09T09:26:19.765Z,101009.27
2023-04-09T09:28:26.478Z,101012.56
2023-04-09T09:30:32.957Z,101010.92
2023-04-09T09:32:40.157Z,101012.45
2023-04-09T09:34:49.857Z,101009.15
2023-04-09T09:36:56.504Z,101015.77
2023-04-09T09:39:02.769Z,101008.32
2023-04-09T09:41:09.094Z,101010.89
2023-04-09T09:43:16.310Z,101008.81
2023-04-09T09:45:23.348Z,101007.73
2023-04-09T09:47:29.637Z,101006.53
2023-04-09T09:49:36.474Z,101004.94
2023-04-09T09:51:43.372Z,101001.73
2023-04-09T09:53:51.522Z,101004.23
2023-04-09T09:55:58.202Z,101002.98
2023-04-09T09:58:04.831Z,100996.73
2023-04-09T10:00:11.861Z,100994.84
2023-04-09T10:02:18.307Z,100997.02
2023-04-09T10:04:25.687Z,100993.89
2023-04-09T10:06:33.138Z,100996.3
2023-04-09T10:08:39.805Z,100994.5
2023-04-09T10:10:46.064Z,100990.67
2023-04-09T10:12:53.414Z,100992.98
2023-04-09T10:15:00.474Z,100998.22
2023-04-09T10:17:07.685Z,100992.98
2023-04-09T10:19:14.951Z,100993.81
2023-04-09T10:21:21.752Z,100994.25
2023-04-09T10:23:28.590Z,100991.61
2023-04-09T10:25:35.772Z,100987.6
2023-04-09T10:27:42.660Z,100992.75
2023-04-09T10:29:49.849Z,100989.08
2023-04-09T10:31:56.660Z,100987.26
2023-04-09T10:34:03.043Z,100989.65
2023-04-09T10:36:09.782Z,100986.39
2023-04-09T10:38:17.032Z,100987.23
2023-04-09T10:40:24.922Z,100989.45
2023-04-09T10:42:33.680Z,100985.19
2023-04-09T10:44:40.839Z,100986.27
2023-04-09T10:46:48.404Z,100983.49
2023-04-09T10:48:56.288Z,100984.92
2023-04-09T10:51:03.666Z,100982.33
2023-04-09T10:53:10.849Z,100985.26
2023-04-09T10:55:17.939Z,100989.4
2023-04-09T10:57:24.996Z,100987.33
2023-04-09T10:59:31.930Z,100986.66
2023-04-09T11:01:40.546Z,100988.3
2023-04-09T11:03:49.567Z,100988.03
2023-04-09T11:05:56.793Z,100985.91
2023-04-09T11:08:04.594Z,100988.11
2023-04-09T11:10:13.078Z,100984.38
2023-04-09T11:12:19.808Z,100984.61
2023-04-09T11:14:26.701Z,100985.52
2023-04-09T11:16:34.001Z,100985.29
2023-04-09T11:18:40.871Z,100986.03
2023-04-09T11:20:47.813Z,100982.11
2023-04-09T11:22:54.389Z,100979
2023-04-09T11:25:00.954Z,100978.32
2023-04-09T11:27:07.883Z,100981.95
2023-04-09T11:29:14.307Z,100982.57
2023-04-09T11:31:21.546Z,100978
2023-04-09T11:33:29.703Z,100979.16
2023-04-09T11:35:36.407Z,100979.61
2023-04-09T11:37:43.212Z,100983.06
2023-04-09T11:39:49.540Z,100986.66
2023-04-09T11:41:56.124Z,100985.19
2023-04-09T11:44:03.567Z,100984.64
2023-04-09T11:46:10.653Z,100986
2023-04-09T11:48:17.111Z,100982.33
2023-04-09T11:50:24.205Z,100982.7
2023-04-09T11:52:30.849Z,100981.7
2023-04-09T11:54:37.318Z,100983.16
2023-04-09T11:56:44.011Z,100981.2
2023-04-09T11:58:51.644Z,100977.33
2023-04-09T12:00:59.933Z,100975.61
2023-04-09T12:03:07.393Z,100977.19
2023-04-09T12:05:14.931Z,100982.69
2023-04-09T12:07:22.931Z,100982.32
2023-04-09T12:09:30.115Z,100983.14
2023-04-09T12:11:36.859Z,100976.8
2023-04-09T12:13:43.631Z,100977.3
2023-04-09T12:15:50.717Z,100975.98
2023-04-09T12:17:57.303Z,100979.92
2023-04-09T12:20:04.712Z,100979.66
2023-04-09T12:22:11.488Z,100979.25
2023-04-09T12:24:17.987Z,100977.21
2023-04-09T12:26:25.262Z,100973.77
2023-04-09T12:28:31.742Z,100973.11
2023-04-09T12:30:38.022Z,100969.79
2023-04-09T12:32:45.666Z,100972.59
2023-04-09T12:34:52.216Z,100969.97
2023-04-09T12:36:59.086Z,100971.95
2023-04-09T12:39:06.370Z,100972.58
2023-04-09T12:41:12.647Z,100969.07
2023-04-09T12:43:19.703Z,100969.13
2023-04-09T12:45:26.131Z,100962.37
2023-04-09T12:47:32.478Z,100967.41
2023-04-09T12:49:42.335Z,100967.09
2023-04-09T12:51:49.247Z,100962.3
2023-04-09T12:53:56.710Z,100959.44
2023-04-09T12:56:03.327Z,100955.8
2023-04-09T12:58:09.906Z,100956.41
2023-04-09T13:00:16.893Z,100950.91
2023-04-09T13:02:23.640Z,100953.66
2023-04-09T13:04:30.781Z,100948.98
2023-04-09T13:06:37.772Z,100945.35
2023-04-09T13:08:44.314Z,100943.17
2023-04-09T13:10:51.272Z,100944.82
2023-04-09T13:12:57.898Z,100945.41
2023-04-09T13:15:04.807Z,100944.09
2023-04-09T13:17:11.299Z,100941.42
2023-04-09T13:19:18.377Z,100939.99
2023-04-09T13:21:24.884Z,100940.77
2023-04-09T13:23:32.004Z,100947.02
2023-04-09T13:25:38.498Z,100942.19
2023-04-09T13:27:45.290Z,100939.02
2023-04-09T13:29:51.952Z,100947.56
2023-04-09T13:31:58.594Z,100944.05
2023-04-09T13:34:05.534Z,100942.83
2023-04-09T13:36:12.867Z,100938.59
2023-04-09T13:38:19.813Z,100936.36
2023-04-09T13:40:27.337Z,100935.55
2023-04-09T13:42:33.815Z,100930.84
2023-04-09T13:44:40.392Z,100930.02
2023-04-09T13:46:47.445Z,100926.52
2023-04-09T13:48:54.745Z,100933.13
2023-04-09T13:51:01.220Z,100931.19
2023-04-09T13:53:08.524Z,100929.69
2023-04-09T13:55:15.622Z,100926.44
2023-04-09T13:57:22.049Z,100927.08
2023-04-09T13:59:28.528Z,100923.23
2023-04-09T14:01:35.834Z,100924.81
2023-04-09T14:03:43.349Z,100925.84
2023-04-09T14:05:51.398Z,100925.31
2023-04-09T14:07:57.908Z,100922.45
2023-04-09T14:10:04.961Z,100921.25
2023-04-09T14:12:11.384Z,100920.91
2023-04-09T14:14:17.888Z,100918.79
2023-04-09T14:16:24.432Z,100918.75
2023-04-09T14:18:30.943Z,100919.66
2023-04-09T14:20:37.279Z,100916.19
2023-04-09T14:22:44.168Z,100911.55
2023-04-09T14:24:51.070Z,100911.17
2023-04-09T14:26:57.326Z,100911.94
2023-04-09T14:29:07.931Z,100911.22
2023-04-09T14:31:20.727Z,100912.97
2023-04-09T14:33:28.497Z,100906.87
2023-04-09T14:35:35.119Z,100907.12
2023-04-09T14:37:41.796Z,100905.42
2023-04-09T14:39:48.413Z,100904.45
2023-04-09T14:41:55.063Z,100902.73
2023-04-09T14:44:01.796Z,100902.71
2023-04-09T14:46:08.405Z,100899.7
2023-04-09T14:48:15.096Z,100897.78
2023-04-09T14:50:22.130Z,100897.08
2023-04-09T14:52:29.516Z,100895.7
2023-04-09T14:54:36.247Z,100895.88
2023-04-09T14:56:42.846Z,100895.05
2023-04-09T14:58:49.155Z,100896.33
2023-04-09T15:00:56.266Z,100898.51
2023-04-09T15:03:03.097Z,100901.91
2023-04-09T15:05:10.076Z,100900.25
2023-04-09T15:07:16.777Z,100900.8
2023-04-09T15:09:23.629Z,100902.67
2023-04-09T15:11:30.433Z,100899.27
2023-04-09T15:13:37.236Z,100899.76
2023-04-09T15:15:44.292Z,100903.48
2023-04-09T15:17:51.436Z,100898.08
2023-04-09T15:19:58.139Z,100900.05
2023-04-09T15:22:04.948Z,100900.14
2023-04-09T15:24:11.301Z,100900.48
2023-04-09T15:26:17.863Z,100898.52
2023-04-09T15:28:24.612Z,100902.44
2023-04-09T15:30:31.560Z,100897.97
2023-04-09T15:32:39.775Z,100902.51
2023-04-09T15:34:46.622Z,100902.78
2023-04-09T15:36:53.491Z,100902.63
2023-04-09T15:39:00.350Z,100904.52
2023-04-09T15:41:07.191Z,100904.41
2023-04-09T15:43:13.947Z,100901.59
2023-04-09T15:45:20.752Z,100902.78
2023-04-09T15:47:28.290Z,100904.66
2023-04-09T15:49:38.907Z,100900.47
2023-04-09T15:51:45.756Z,100900.53
2023-04-09T15:53:52.444Z,100901.31
2023-04-09T15:55:59.451Z,100904.9
2023-04-09T15:58:08.155Z,100910.13
2023-04-09T16:00:16.215Z,100907.64
2023-04-09T16:02:27.693Z,100913.1
2023-04-09T16:04:36.206Z,100912.05
2023-04-09T16:06:44.460Z,100911.27
2023-04-09T16:08:52.000Z,100912.54
2023-04-09T16:10:59.703Z,100912.05
2023-04-09T16:13:08.088Z,100908.52
2023-04-09T16:15:15.539Z,100915.23
2023-04-09T16:17:23.707Z,100914.09
2023-04-09T16:19:31.628Z,100914.7
2023-04-09T16:21:38.419Z,100918.7
2023-04-09T16:23:46.003Z,100919.77
2023-04-09T16:25:54.272Z,100922.08
2023-04-09T16:28:02.623Z,100922.71
2023-04-09T16:30:10.159Z,100923.48
2023-04-09T16:32:16.694Z,100923.24
2023-04-09T16:34:24.269Z,100925.52
2023-04-09T16:36:33.242Z,100925.89
2023-04-09T16:38:39.994Z,100923.4
2023-04-09T16:40:46.973Z,100925.02
2023-04-09T16:42:53.769Z,100924.64
2023-04-09T16:45:00.682Z,100926.44
2023-04-09T16:47:07.880Z,100924.82
2023-04-09T16:49:15.674Z,100928.5
2023-04-09T16:51:24.626Z,100933.34
2023-04-09T16:53:32.222Z,100935.61
2023-04-09T16:55:41.004Z,100935.8
2023-04-09T16:57:48.487Z,100940.3
2023-04-09T16:59:55.857Z,100936.58
2023-04-09T17:02:02.873Z,100938.52
2023-04-09T17:04:10.211Z,100938.88
2023-04-09T17:06:17.700Z,100939.95
2023-04-09T17:08:24.538Z,100943.8
2023-04-09T17:10:32.444Z,100941.89
2023-04-09T17:12:40.400Z,100945.3
2023-04-09T17:14:47.526Z,100947.77
2023-04-09T17:16:54.318Z,100949.6
2023-04-09T17:19:02.228Z,100950.52
2023-04-09T17:21:09.933Z,100955.58
2023-04-09T17:23:16.408Z,100951.73
2023-04-09T17:25:23.404Z,100952.31
2023-04-09T17:27:30.850Z,100951.72
2023-04-09T17:29:37.742Z,100952.19
2023-04-09T17:31:44.526Z,100954.41
2023-04-09T17:33:51.384Z,100955.63
2023-04-09T17:35:58.355Z,100957.28
2023-04-09T17:38:05.118Z,100957.34
2023-04-09T17:40:11.903Z,100958.89
2023-04-09T17:42:18.815Z,100960.69
2023-04-09T17:44:27.224Z,100963.5
2023-04-09T17:46:35.037Z,100965.58
2023-04-09T17:48:41.691Z,100970.59
2023-04-09T17:50:48.397Z,100969.27
2023-04-09T17:52:55.571Z,100973.45
2023-04-09T17:55:02.295Z,100974.53
2023-04-09T17:57:09.150Z,100973.03
2023-04-09T17:59:16.059Z,100974.4
2023-04-09T18:01:23.084Z,100981.3
2023-04-09T18:03:30.662Z,100976.7
2023-04-09T18:05:39.452Z,100983.64
2023-04-09T18:07:47.059Z,100985.92
2023-04-09T18:09:54.264Z,100989.31
2023-04-09T18:12:01.219Z,100989.97
2023-04-09T18:14:08.420Z,100994.18
2023-04-09T18:16:15.027Z,100997.32
2023-04-09T18:18:21.792Z,100994.86
2023-04-09T18:20:28.923Z,100997.09
2023-04-09T18:22:36.512Z,101001.86
2023-04-09T18:24:43.841Z,101004.33
2023-04-09T18:26:51.479Z,101007.98
2023-04-09T18:29:01.721Z,101007.55
2023-04-09T18:31:08.727Z,101014.34
2023-04-09T18:33:16.313Z,101014.36
2023-04-09T18:35:24.921Z,101020.86
2023-04-09T18:37:32.411Z,101023.09
2023-04-09T18:39:39.286Z,101022.76
2023-04-09T18:41:45.856Z,101019.44
2023-04-09T18:43:52.855Z,101015.19
2023-04-09T18:45:59.756Z,101020.89
2023-04-09T18:48:07.037Z,101022.63
2023-04-09T18:50:14.126Z,101024.28
2023-04-09T18:52:21.387Z,101026.5
2023-04-09T18:54:28.612Z,101023.65
2023-04-09T18:56:36.076Z,101025.3
2023-04-09T18:58:44.400Z,101030.31
2023-04-09T19:00:53.679Z,101028.5
2023-04-09T19:03:02.475Z,101023.75
2023-04-09T19:05:11.772Z,101022.77
2023-04-09T19:07:20.328Z,101025.98
2023-04-09T19:09:30.131Z,101023.47
2023-04-09T19:11:40.304Z,101023.94
2023-04-09T19:13:50.483Z,101024.05
2023-04-09T19:15:58.501Z,101018.53
2023-04-09T19:18:07.080Z,101023.84
2023-04-09T19:20:16.136Z,101021.25
2023-04-09T19:22:27.560Z,101020.34
2023-04-09T19:24:35.766Z,101027.19
2023-04-09T19:26:44.605Z,101021.23
2023-04-09T19:28:56.501Z,101024.77
2023-04-09T19:31:05.725Z,101024.81
2023-04-09T19:33:15.650Z,101026.99
2023-04-09T19:35:24.522Z,101023.8
2023-04-09T19:37:33.789Z,101031.57
2023-04-09T19:39:41.853Z,101027.93
2023-04-09T19:41:48.767Z,101026.09
2023-04-09T19:43:56.847Z,101022.89
2023-04-09T19:46:03.730Z,101024.22
2023-04-09T19:48:10.845Z,101025.47
2023-04-09T19:50:17.677Z,101028.77
2023-04-09T19:52:24.637Z,101029.42
2023-04-09T19:54:31.556Z,101028.59
2023-04-09T19:56:38.920Z,101031.26
2023-04-09T19:58:45.443Z,101032.39
2023-04-09T20:00:53.323Z,101032.98
2023-04-09T20:03:00.573Z,101036.16
2023-04-09T20:05:08.046Z,101036.89
2023-04-09T20:07:15.144Z,101037.34
2023-04-09T20:09:21.906Z,101038.28
2023-04-09T20:11:28.781Z,101041.15
2023-04-09T20:13:36.651Z,101043.44
2023-04-09T20:15:43.206Z,101044.73
2023-04-09T20:17:49.926Z,101044.67
2023-04-09T20:19:56.920Z,101041.59
2023-04-09T20:22:03.573Z,101046.8
2023-04-09T20:24:10.783Z,101046
2023-04-09T20:26:17.606Z,101047.08
2023-04-09T20:28:24.266Z,101043.94
2023-04-09T20:30:31.176Z,101043.66
2023-04-09T20:32:38.048Z,101039.36
2023-04-09T20:34:44.579Z,101043.46
2023-04-09T20:36:51.137Z,101038.04
2023-04-09T20:38:58.002Z,101038.45
2023-04-09T20:41:04.350Z,101034.16
2023-04-09T20:43:10.916Z,101031.88
2023-04-09T20:45:17.657Z,101036.09
2023-04-09T20:47:24.158Z,101031.55
2023-04-09T20:49:30.801Z,101030.53
2023-04-09T20:51:37.405Z,101033.15
2023-04-09T20:53:43.944Z,101032.79
2023-04-09T20:55:50.476Z,101034.44
2023-04-09T20:57:57.150Z,101034.55
2023-04-09T21:00:03.659Z,101034.94
2023-04-09T21:02:10.518Z,101033.2
2023-04-09T21:04:18.023Z,101034.72
2023-04-09T21:06:25.755Z,101034.3
2023-04-09T21:08:35.209Z,101035.52
2023-04-09T21:10:43.885Z,101034.63
2023-04-09T21:12:50.809Z,101037.08
2023-04-09T21:14:57.255Z,101034.5
2023-04-09T21:17:04.139Z,101037.94
2023-04-09T21:19:11.257Z,101032.87
2023-04-09T21:21:17.604Z,101037.84
2023-04-09T21:23:24.370Z,101039.14
2023-04-09T21:25:31.240Z,101042.47
2023-04-09T21:27:37.650Z,101042.68
2023-04-09T21:29:44.288Z,101038.81
2023-04-09T21:31:51.324Z,101042.34
2023-04-09T21:33:57.774Z,101042.55
2023-04-09T21:36:06.165Z,101040.28
2023-04-09T21:38:13.029Z,101047.59
2023-04-09T21:40:19.510Z,101047.95
2023-04-09T21:42:26.177Z,101049.31
2023-04-09T21:44:33.048Z,101046.91
2023-04-09T21:46:39.939Z,101049.93
2023-04-09T21:48:47.370Z,101049.95
2023-04-09T21:50:55.008Z,101045.25
2023-04-09T21:53:01.922Z,101049.71
2023-04-09T21:55:08.276Z,101047.2
2023-04-09T21:57:15.212Z,101041.55
2023-04-09T21:59:21.878Z,101043.9
2023-04-09T22:01:31.184Z,101048.59
2023-04-09T22:03:40.445Z,101047.02
2023-04-09T22:05:47.908Z,101045.41
2023-04-09T22:07:54.117Z,101049.94
2023-04-09T22:10:00.849Z,101052.77
2023-04-09T22:12:07.507Z,101055.39
2023-04-09T22:14:14.056Z,101056.1
2023-04-09T22:16:20.607Z,101056.39
2023-04-09T22:18:27.066Z,101060.02
2023-04-09T22:20:33.910Z,101054.81
2023-04-09T22:22:41.253Z,101054.66
2023-04-09T22:24:48.436Z,101065.78
2023-04-09T22:26:55.154Z,101064.78
2023-04-09T22:29:02.818Z,101065.29
2023-04-09T22:31:12.605Z,101069.94
2023-04-09T22:33:19.764Z,101067.41
2023-04-09T22:35:25.887Z,101067.53
2023-04-09T22:37:32.439Z,101070.42
2023-04-09T22:39:38.910Z,101073.83
2023-04-09T22:41:45.428Z,101077.09
2023-04-09T22:43:53.551Z,101070.95
2023-04-09T22:45:59.819Z,101070.75
2023-04-09T22:48:06.228Z,101069.44
2023-04-09T22:50:12.680Z,101074.22
2023-04-09T22:52:18.965Z,101074.72
2023-04-09T22:54:39.486Z,101072.64
2023-04-09T22:56:46.585Z,101070.75
2023-04-09T22:58:53.294Z,101070.83
2023-04-09T23:01:01.313Z,101067.59
2023-04-09T23:03:08.334Z,101068.37
2023-04-09T23:05:15.308Z,101065.67
2023-04-09T23:07:22.629Z,101064.88
2023-04-09T23:09:29.040Z,101067.15
2023-04-09T23:11:35.863Z,101068.88
2023-04-09T23:13:42.666Z,101072.01
2023-04-09T23:15:49.541Z,101070.41
2023-04-09T23:17:56.611Z,101071.73
2023-04-09T23:20:03.579Z,101072.33
2023-04-09T23:22:10.284Z,101070.78
2023-04-09T23:24:17.115Z,101070
2023-04-09T23:26:23.688Z,101070.53
2023-04-09T23:28:30.197Z,101067.77
2023-04-09T23:30:37.148Z,101067.56
2023-04-09T23:32:44.114Z,101071.46
2023-04-09T23:34:50.558Z,101066.56
2023-04-09T23:36:57.801Z,101063.96
2023-04-09T23:39:04.541Z,101061.5
2023-04-09T23:41:11.182Z,101063.34
2023-04-09T23:43:17.436Z,101063.45
2023-04-09T23:45:23.910Z,101062.97
2023-04-09T23:47:30.322Z,101060.77
2023-04-09T23:49:37.548Z,101057.67
2023-04-09T23:51:43.998Z,101055.81
2023-04-09T23:53:50.325Z,101056.11
2023-04-09T23:56:00.516Z,101057.91
2023-04-09T23:58:07.137Z,101057.81
